createdAt,value
2019-03-12T00:01:12.000Z,2.20
2019-03-12T00:03:41.433Z,2.20
2019-03-12T00:06:11.649Z,2.20
2019-03-12T00:08:41.829Z,2.10
2019-03-12T00:11:11.948Z,2.10
2019-03-12T00:13:42.012Z,2.00
2019-03-12T00:16:12.192Z,2.00
2019-03-12T00:18:42.326Z,1.90
2019-03-12T00:21:12.435Z,1.90
2019-03-12T00:23:42.649Z,1.80
2019-03-12T00:26:12.689Z,1.80
2019-03-12T00:28:42.809Z,1.80
2019-03-12T00:31:13.006Z,1.80
2019-03-12T00:33:43.209Z,1.80
2019-03-12T00:36:13.248Z,1.80
2019-03-12T00:38:43.384Z,1.80
2019-03-12T00:41:13.503Z,1.90
2019-03-12T00:43:43.700Z,1.90
2019-03-12T00:46:13.813Z,1.90
2019-03-12T00:48:44.002Z,1.90
2019-03-12T00:51:14.062Z,1.90
2019-03-12T00:53:44.189Z,1.90
2019-03-12T00:56:14.360Z,1.90
2019-03-12T00:58:44.517Z,1.90
2019-03-12T01:01:14.619Z,1.80
2019-03-12T01:03:44.756Z,1.80
2019-03-12T01:06:14.940Z,1.80
2019-03-12T01:08:45.092Z,1.80
2019-03-12T01:11:15.178Z,1.80
2019-03-12T01:13:44.594Z,1.80
2019-03-12T01:16:14.048Z,1.80
2019-03-12T01:18:43.458Z,1.80
2019-03-12T01:21:12.886Z,1.80
2019-03-12T01:23:42.382Z,1.80
2019-03-12T01:26:11.824Z,1.80
2019-03-12T01:28:41.318Z,1.90
2019-03-12T01:31:10.694Z,2.00
2019-03-12T01:33:40.128Z,2.00
2019-03-12T01:36:11.342Z,2.00
2019-03-12T01:38:42.418Z,2.00
2019-03-12T01:41:11.942Z,2.10
2019-03-12T01:43:41.360Z,2.20
2019-03-12T01:46:10.810Z,2.40
2019-03-12T01:48:40.230Z,2.60
2019-03-12T01:51:09.672Z,2.80
2019-03-12T01:53:39.096Z,2.90
2019-03-12T01:56:08.468Z,3.10
2019-03-12T01:58:37.898Z,3.20
2019-03-12T02:01:19.830Z,3.30
2019-03-12T02:03:49.270Z,3.40
2019-03-12T02:06:18.696Z,3.40
2019-03-12T02:08:48.469Z,3.40
2019-03-12T02:11:18.495Z,3.50
2019-03-12T02:13:48.624Z,3.60
2019-03-12T02:16:18.751Z,3.70
2019-03-12T02:18:48.858Z,3.80
2019-03-12T02:21:19.064Z,3.80
2019-03-12T02:23:50.185Z,3.90
2019-03-12T02:26:19.632Z,4.00
2019-03-12T02:28:49.431Z,4.00
2019-03-12T02:31:19.638Z,3.90
2019-03-12T02:33:49.767Z,4.00
2019-03-12T02:36:19.930Z,3.90
2019-03-12T02:38:50.060Z,3.90
2019-03-12T02:41:20.176Z,3.90
2019-03-12T02:43:50.266Z,3.80
2019-03-12T02:46:20.441Z,3.80
2019-03-12T02:48:50.529Z,3.80
2019-03-12T02:51:20.668Z,3.90
2019-03-12T02:53:50.914Z,4.00
2019-03-12T02:56:21.019Z,4.00
2019-03-12T02:58:51.151Z,4.10
2019-03-12T03:01:21.345Z,4.10
2019-03-12T03:03:51.471Z,4.10
2019-03-12T03:06:23.223Z,4.10
2019-03-12T03:08:52.701Z,4.00
2019-03-12T03:11:22.119Z,3.90
2019-03-12T03:13:51.967Z,3.80
2019-03-12T03:16:24.146Z,3.60
2019-03-12T03:18:54.655Z,3.50
2019-03-12T03:21:24.148Z,3.50
2019-03-12T03:23:53.578Z,3.50
2019-03-12T03:26:23.032Z,3.50
2019-03-12T03:28:52.622Z,3.50
2019-03-12T03:31:22.855Z,3.40
2019-03-12T03:33:52.950Z,3.40
2019-03-12T03:36:23.110Z,3.30
2019-03-12T03:38:53.616Z,3.30
2019-03-12T03:41:23.325Z,3.40
2019-03-12T03:43:53.538Z,3.40
2019-03-12T03:46:24.069Z,3.50
2019-03-12T03:48:53.784Z,3.70
2019-03-12T03:51:23.911Z,3.80
2019-03-12T03:53:54.077Z,4.00
2019-03-12T03:56:24.177Z,4.10
2019-03-12T03:58:54.409Z,4.10
2019-03-12T04:01:24.446Z,4.10
2019-03-12T04:03:54.729Z,4.10
2019-03-12T04:06:24.877Z,4.00
2019-03-12T04:08:54.852Z,4.00
2019-03-12T04:11:25.036Z,4.00
2019-03-12T04:13:55.117Z,4.10
2019-03-12T04:16:25.371Z,4.10
2019-03-12T04:18:55.363Z,4.20
2019-03-12T04:21:25.672Z,4.30
2019-03-12T04:23:55.707Z,4.40
2019-03-12T04:26:25.897Z,4.40
2019-03-12T04:28:55.989Z,4.30
2019-03-12T04:31:26.165Z,4.20
2019-03-12T04:34:02.295Z,4.10
2019-03-12T04:36:31.730Z,4.00
2019-03-12T04:39:01.172Z,3.90
2019-03-12T04:41:32.243Z,3.80
2019-03-12T04:44:01.686Z,3.80
2019-03-12T04:46:32.256Z,3.70
2019-03-12T04:49:01.720Z,3.60
2019-03-12T04:51:31.166Z,3.60
2019-03-12T04:54:00.597Z,3.50
2019-03-12T04:56:30.062Z,3.60
2019-03-12T04:58:59.570Z,3.60
2019-03-12T05:01:29.021Z,3.60
2019-03-12T05:03:58.470Z,3.50
2019-03-12T05:06:28.995Z,3.50
2019-03-12T05:08:58.426Z,3.40
2019-03-12T05:11:28.424Z,3.30
2019-03-12T05:14:19.885Z,3.30
2019-03-12T05:16:49.415Z,3.30
2019-03-12T05:19:18.978Z,3.20
2019-03-12T05:21:51.479Z,3.20
2019-03-12T05:24:20.908Z,3.20
2019-03-12T05:26:50.360Z,3.10
2019-03-12T05:29:22.739Z,3.20
2019-03-12T05:31:52.251Z,3.10
2019-03-12T05:34:23.234Z,3.10
2019-03-12T05:36:52.919Z,3.10
2019-03-12T05:39:22.362Z,3.10
2019-03-12T05:41:51.781Z,3.10
2019-03-12T05:44:21.204Z,3.10
2019-03-12T05:46:50.670Z,3.20
2019-03-12T05:49:21.279Z,3.20
2019-03-12T05:51:50.649Z,3.30
2019-03-12T05:54:20.079Z,3.40
2019-03-12T05:56:49.969Z,3.50
2019-03-12T05:59:19.381Z,3.60
2019-03-12T06:01:48.976Z,3.70
2019-03-12T06:04:18.401Z,3.80
2019-03-12T06:06:47.841Z,3.90
2019-03-12T06:09:29.481Z,4.00
2019-03-12T06:11:48.477Z,4.10
2019-03-12T06:14:17.849Z,4.20
2019-03-12T06:16:48.511Z,4.30
2019-03-12T06:19:17.965Z,4.40
2019-03-12T06:21:47.314Z,4.40
2019-03-12T06:24:16.690Z,4.40
2019-03-12T06:26:46.118Z,4.40
2019-03-12T06:29:15.563Z,4.40
2019-03-12T06:31:49.620Z,4.40
2019-03-12T06:34:20.715Z,4.40
2019-03-12T06:37:00.693Z,4.40
2019-03-12T06:39:31.769Z,4.40
2019-03-12T06:42:11.821Z,4.40
2019-03-12T06:44:48.915Z,4.50
2019-03-12T06:47:31.853Z,4.50
2019-03-12T06:50:02.929Z,4.60
2019-03-12T06:52:45.937Z,4.60
2019-03-12T06:55:19.569Z,4.70
2019-03-12T06:58:24.291Z,4.80
2019-03-12T07:01:01.133Z,4.80
2019-03-12T07:03:48.551Z,4.90
2019-03-12T07:06:19.629Z,4.90
2019-03-12T07:09:06.944Z,5.00
2019-03-12T07:11:54.313Z,5.00
2019-03-12T07:14:41.929Z,5.10
2019-03-12T07:17:29.770Z,5.20
2019-03-12T07:20:09.534Z,5.20
2019-03-12T07:22:40.627Z,5.30
2019-03-12T07:25:17.584Z,5.40
2019-03-12T07:27:51.726Z,5.50
2019-03-12T07:30:25.572Z,5.50
2019-03-12T07:33:08.286Z,5.60
2019-03-12T07:35:39.292Z,5.70
2019-03-12T07:38:27.190Z,5.80
2019-03-12T07:41:07.292Z,5.80
2019-03-12T07:43:54.948Z,5.90
2019-03-12T07:46:26.035Z,6.10
2019-03-12T07:49:09.392Z,6.20
2019-03-12T07:51:53.140Z,6.40
2019-03-12T07:54:28.278Z,6.40
2019-03-12T07:57:01.862Z,6.40
2019-03-12T07:59:42.271Z,6.40
2019-03-12T08:02:31.402Z,6.50
2019-03-12T08:05:08.509Z,6.70
2019-03-12T08:07:55.799Z,6.90
2019-03-12T08:10:42.916Z,7.00
2019-03-12T08:13:14.073Z,7.10
2019-03-12T08:16:03.588Z,7.20
2019-03-12T08:18:35.677Z,7.40
2019-03-12T08:21:21.443Z,7.50
2019-03-12T08:23:46.200Z,7.50
2019-03-12T08:26:32.451Z,7.60
2019-03-12T08:29:06.218Z,7.70
2019-03-12T08:31:38.934Z,7.80
2019-03-12T08:34:10.011Z,7.90
2019-03-12T08:36:52.926Z,8.10
2019-03-12T08:39:26.736Z,8.40
2019-03-12T08:42:03.540Z,8.50
2019-03-12T08:44:37.472Z,8.50
2019-03-12T08:47:16.332Z,8.60
2019-03-12T08:50:02.325Z,8.60
2019-03-12T08:52:42.275Z,8.50
2019-03-12T08:55:22.151Z,8.40
2019-03-12T08:57:55.982Z,8.40
2019-03-12T09:00:32.767Z,8.40
2019-03-12T09:03:06.576Z,8.30
2019-03-12T09:05:43.400Z,8.30
2019-03-12T09:08:17.288Z,8.50
2019-03-12T09:10:48.437Z,8.50
2019-03-12T09:13:19.589Z,8.50
2019-03-12T09:15:56.396Z,8.60
2019-03-12T09:18:33.225Z,8.60
2019-03-12T09:21:13.574Z,8.60
2019-03-12T09:23:59.900Z,8.70
2019-03-12T09:26:39.732Z,8.80
2019-03-12T09:29:10.831Z,8.70
2019-03-12T09:31:58.461Z,8.70
2019-03-12T09:34:29.535Z,8.70
2019-03-12T09:37:03.218Z,8.70
2019-03-12T09:39:40.082Z,8.70
2019-03-12T09:42:17.089Z,8.50
2019-03-12T09:45:04.688Z,8.40
2019-03-12T09:47:52.194Z,8.40
2019-03-12T09:50:23.304Z,8.40
2019-03-12T09:53:03.681Z,8.60
2019-03-12T09:55:35.851Z,8.80
2019-03-12T09:58:09.921Z,8.80
2019-03-12T10:00:58.790Z,8.90
2019-03-12T10:03:32.582Z,8.90
2019-03-12T10:06:03.712Z,9.10
2019-03-12T10:08:34.863Z,9.20
2019-03-12T10:11:06.115Z,9.30
2019-03-12T10:13:43.189Z,9.40
2019-03-12T10:16:22.989Z,9.50
2019-03-12T10:18:56.455Z,9.60
2019-03-12T10:21:33.556Z,9.70
2019-03-12T10:24:04.772Z,9.70
2019-03-12T10:26:54.265Z,9.60
2019-03-12T10:29:25.423Z,9.70
2019-03-12T10:32:08.667Z,9.60
2019-03-12T10:34:39.740Z,9.60
2019-03-12T10:37:16.424Z,9.40
2019-03-12T10:39:54.660Z,9.20
2019-03-12T10:42:34.511Z,9.20
2019-03-12T10:45:10.154Z,9.40
2019-03-12T10:47:41.323Z,9.30
2019-03-12T10:50:11.189Z,9.20
2019-03-12T10:52:40.716Z,9.20
2019-03-12T10:55:13.417Z,8.90
2019-03-12T10:57:41.470Z,8.80
2019-03-12T11:00:15.670Z,8.80
2019-03-12T11:02:45.247Z,8.90
2019-03-12T11:05:15.129Z,8.90
2019-03-12T11:07:44.584Z,8.70
2019-03-12T11:10:19.783Z,8.70
2019-03-12T11:12:49.354Z,8.70
2019-03-12T11:15:18.858Z,8.70
2019-03-12T11:17:49.777Z,8.70
2019-03-12T11:20:22.239Z,8.70
2019-03-12T11:22:51.831Z,8.60
2019-03-12T11:25:27.034Z,8.60
2019-03-12T11:27:53.362Z,8.60
2019-03-12T11:30:22.897Z,8.70
2019-03-12T11:32:52.332Z,8.70
2019-03-12T11:35:22.339Z,8.70
2019-03-12T11:37:52.929Z,8.60
2019-03-12T11:40:24.248Z,8.70
2019-03-12T11:42:54.048Z,8.80
2019-03-12T11:45:35.647Z,8.90
2019-03-12T11:47:57.625Z,9.00
2019-03-12T11:50:27.439Z,8.90
2019-03-12T11:52:58.950Z,9.10
2019-03-12T11:55:27.951Z,9.20
2019-03-12T11:57:57.340Z,9.30
2019-03-12T12:00:31.252Z,9.40
2019-03-12T12:03:01.148Z,9.40
2019-03-12T12:05:32.080Z,9.60
2019-03-12T12:08:01.549Z,9.60
2019-03-12T12:10:31.073Z,9.60
2019-03-12T12:13:00.575Z,9.60
2019-03-12T12:15:30.476Z,9.50
2019-03-12T12:18:00.063Z,9.30
2019-03-12T12:20:30.529Z,9.30
2019-03-12T12:23:00.122Z,9.30
2019-03-12T12:25:29.551Z,9.40
2019-03-12T12:27:59.070Z,9.50
2019-03-12T12:30:28.645Z,9.60
2019-03-12T12:32:58.091Z,9.50
2019-03-12T12:35:27.634Z,9.50
2019-03-12T12:37:57.103Z,9.60
2019-03-12T12:40:26.522Z,9.60
2019-03-12T12:42:56.291Z,9.70
2019-03-12T12:45:28.273Z,9.60
2019-03-12T12:47:57.723Z,9.70
2019-03-12T12:50:27.286Z,9.80
2019-03-12T12:52:56.708Z,9.80
2019-03-12T12:55:26.943Z,9.70
2019-03-12T12:57:56.911Z,9.70
2019-03-12T13:00:28.691Z,9.60
2019-03-12T13:02:58.187Z,9.60
2019-03-12T13:05:27.795Z,9.40
2019-03-12T13:07:57.473Z,9.30
2019-03-12T13:10:31.409Z,9.30
2019-03-12T13:13:00.858Z,9.20
2019-03-12T13:15:30.445Z,9.20
2019-03-12T13:17:59.945Z,9.30
2019-03-12T13:20:29.460Z,9.30
2019-03-12T13:22:58.900Z,9.20
2019-03-12T13:25:28.633Z,9.20
2019-03-12T13:27:58.737Z,9.30
2019-03-12T13:30:28.877Z,9.30
2019-03-12T13:32:59.033Z,9.30
2019-03-12T13:35:29.244Z,9.30
2019-03-12T13:37:59.361Z,9.40
2019-03-12T13:40:29.563Z,9.40
2019-03-12T13:42:59.613Z,9.20
2019-03-12T13:45:33.173Z,9.20
2019-03-12T13:48:03.043Z,9.40
2019-03-12T13:50:32.802Z,9.40
2019-03-12T13:53:02.367Z,9.40
2019-03-12T13:55:32.051Z,9.50
2019-03-12T13:58:01.650Z,9.60
2019-03-12T14:00:33.396Z,9.50
2019-03-12T14:03:02.267Z,9.50
2019-03-12T14:05:31.612Z,9.50
2019-03-12T14:08:01.187Z,9.50
2019-03-12T14:10:31.122Z,9.60
2019-03-12T14:13:01.386Z,9.60
2019-03-12T14:15:32.599Z,9.60
2019-03-12T14:18:02.272Z,9.50
2019-03-12T14:20:52.013Z,9.40
2019-03-12T14:23:27.502Z,9.40
2019-03-12T14:25:57.069Z,9.30
2019-03-12T14:28:26.643Z,9.40
2019-03-12T14:30:56.197Z,9.40
2019-03-12T14:33:25.700Z,9.40
2019-03-12T14:35:55.275Z,9.40
2019-03-12T14:38:25.785Z,9.40
2019-03-12T14:40:56.429Z,9.40
2019-03-12T14:43:26.009Z,9.40
2019-03-12T14:45:55.507Z,9.20
2019-03-12T14:48:42.170Z,9.20
2019-03-12T14:51:14.808Z,9.30
2019-03-12T14:53:47.106Z,9.30
2019-03-12T14:56:16.533Z,9.30
2019-03-12T14:58:45.984Z,9.30
2019-03-12T15:01:15.657Z,9.30
2019-03-12T15:03:45.240Z,9.20
2019-03-12T15:06:14.671Z,9.20
2019-03-12T15:08:44.195Z,9.20
2019-03-12T15:11:13.697Z,9.20
2019-03-12T15:13:43.140Z,9.20
2019-03-12T15:16:14.120Z,9.20
2019-03-12T15:18:44.041Z,9.10
2019-03-12T15:21:13.605Z,9.00
2019-03-12T15:23:43.120Z,8.90
2019-03-12T15:26:12.793Z,8.90
2019-03-12T15:28:42.246Z,8.90
2019-03-12T15:31:11.675Z,8.90
2019-03-12T15:33:41.138Z,8.90
2019-03-12T15:36:10.564Z,8.90
2019-03-12T15:38:40.022Z,8.90
2019-03-12T15:41:09.457Z,8.90
2019-03-12T15:43:38.906Z,8.90
2019-03-12T15:46:08.334Z,9.00
2019-03-12T15:48:37.775Z,9.00
2019-03-12T15:51:07.287Z,9.00
2019-03-12T15:53:36.746Z,9.10
2019-03-12T15:56:07.010Z,9.10
2019-03-12T15:58:37.073Z,9.00
2019-03-12T16:01:07.328Z,9.00
2019-03-12T16:03:37.316Z,9.00
2019-03-12T16:06:07.572Z,9.00
2019-03-12T16:08:37.582Z,9.00
2019-03-12T16:11:07.759Z,9.10
2019-03-12T16:13:37.951Z,9.10
2019-03-12T16:16:08.155Z,9.10
2019-03-12T16:18:38.228Z,9.20
2019-03-12T16:21:08.324Z,9.20
2019-03-12T16:23:38.528Z,9.20
2019-03-12T16:26:08.543Z,9.10
2019-03-12T16:28:38.778Z,9.10
2019-03-12T16:31:08.881Z,9.10
2019-03-12T16:33:39.038Z,9.10
2019-03-12T16:36:09.073Z,9.10
2019-03-12T16:38:39.445Z,9.00
2019-03-12T16:41:09.459Z,9.00
2019-03-12T16:43:40.112Z,9.00
2019-03-12T16:46:09.702Z,9.00
2019-03-12T16:48:39.911Z,9.00
2019-03-12T16:51:10.021Z,8.90
2019-03-12T16:53:40.168Z,9.00
2019-03-12T16:56:11.992Z,9.00
2019-03-12T16:58:41.441Z,9.00
2019-03-12T17:01:11.415Z,9.00
2019-03-12T17:03:42.478Z,8.90
2019-03-12T17:06:11.987Z,9.00
2019-03-12T17:08:41.643Z,9.00
2019-03-12T17:11:12.815Z,8.90
2019-03-12T17:13:42.553Z,8.90
2019-03-12T17:16:12.048Z,8.90
2019-03-12T17:18:42.310Z,8.90
2019-03-12T17:21:12.333Z,8.90
2019-03-12T17:23:42.471Z,8.90
2019-03-12T17:26:12.559Z,9.00
2019-03-12T17:28:42.814Z,8.90
2019-03-12T17:31:13.394Z,8.90
2019-03-12T17:33:43.003Z,8.90
2019-03-12T17:36:13.175Z,8.80
2019-03-12T17:38:46.900Z,8.80
2019-03-12T17:41:14.700Z,8.80
2019-03-12T17:43:48.499Z,8.70
2019-03-12T17:46:18.015Z,8.70
2019-03-12T17:48:47.615Z,8.70
2019-03-12T17:51:18.548Z,8.70
2019-03-12T17:53:48.021Z,8.70
2019-03-12T17:56:18.561Z,8.70
2019-03-12T17:58:49.642Z,8.70
2019-03-12T18:01:19.190Z,8.70
2019-03-12T18:03:48.716Z,8.70
2019-03-12T18:06:18.657Z,8.60
2019-03-12T18:08:49.290Z,8.60
2019-03-12T18:11:18.822Z,8.60
2019-03-12T18:13:49.621Z,8.70
2019-03-12T18:16:23.402Z,8.70
2019-03-12T18:18:52.858Z,8.60
2019-03-12T18:21:22.494Z,8.70
2019-03-12T18:23:51.990Z,8.60
2019-03-12T18:26:21.503Z,8.70
2019-03-12T18:28:51.095Z,8.70
2019-03-12T18:31:20.631Z,8.70
2019-03-12T18:33:50.453Z,8.70
2019-03-12T18:36:21.504Z,8.60
2019-03-12T18:38:53.009Z,8.70
2019-03-12T18:41:22.103Z,8.70
2019-03-12T18:43:53.161Z,8.70
2019-03-12T18:46:22.747Z,8.70
2019-03-12T18:48:52.193Z,8.70
2019-03-12T18:51:23.519Z,8.70
2019-03-12T18:53:55.857Z,8.70
2019-03-12T18:56:26.332Z,8.70
2019-03-12T18:58:57.403Z,8.60
2019-03-12T19:01:27.008Z,8.60
2019-03-12T19:03:56.452Z,8.50
2019-03-12T19:06:27.141Z,8.50
2019-03-12T19:08:56.739Z,8.50
2019-03-12T19:11:26.259Z,8.50
2019-03-12T19:13:55.849Z,8.50
2019-03-12T19:16:27.066Z,8.50
2019-03-12T19:18:56.610Z,8.40
2019-03-12T19:21:27.704Z,8.40
2019-03-12T19:23:59.838Z,8.40
2019-03-12T19:26:29.428Z,8.40
2019-03-12T19:28:59.001Z,8.40
2019-03-12T19:31:30.256Z,8.40
2019-03-12T19:34:00.678Z,8.50
2019-03-12T19:36:34.984Z,8.50
2019-03-12T19:39:07.999Z,8.40
2019-03-12T19:41:38.176Z,8.40
2019-03-12T19:44:09.825Z,8.30
2019-03-12T19:46:39.406Z,8.40
2019-03-12T19:49:09.496Z,8.30
2019-03-12T19:51:39.091Z,8.30
2019-03-12T19:54:08.669Z,8.30
2019-03-12T19:56:38.420Z,8.40
2019-03-12T19:59:08.085Z,8.40
2019-03-12T20:01:39.470Z,8.40
2019-03-12T20:04:10.541Z,8.40
2019-03-12T20:06:40.201Z,8.50
2019-03-12T20:09:09.947Z,8.40
2019-03-12T20:11:49.901Z,8.40
2019-03-12T20:14:40.091Z,8.40
2019-03-12T20:17:25.315Z,8.50
2019-03-12T20:20:13.970Z,8.50
2019-03-12T20:23:18.414Z,8.50
2019-03-12T20:26:16.527Z,8.50
2019-03-12T20:29:04.270Z,8.60
2019-03-12T20:32:00.869Z,8.60
2019-03-12T20:34:54.978Z,8.60
2019-03-12T20:37:57.080Z,8.60
2019-03-12T20:40:55.953Z,8.50
2019-03-12T20:43:28.733Z,8.30
2019-03-12T20:46:28.694Z,8.30
2019-03-12T20:49:16.326Z,8.30
2019-03-12T20:52:13.096Z,8.20
2019-03-12T20:55:02.960Z,8.20
2019-03-12T20:57:59.081Z,8.10
2019-03-12T21:00:59.127Z,8.20
2019-03-12T21:03:54.168Z,8.10
2019-03-12T21:06:44.419Z,8.10
2019-03-12T21:09:34.835Z,8.10
2019-03-12T21:12:28.216Z,8.20
2019-03-12T21:15:23.084Z,8.20
2019-03-12T21:18:11.899Z,8.20
2019-03-12T21:20:56.237Z,8.20
2019-03-12T21:23:45.062Z,8.20
2019-03-12T21:26:23.166Z,8.30
2019-03-12T21:28:59.493Z,8.30
2019-03-12T21:31:29.189Z,8.30
2019-03-12T21:33:58.744Z,8.30
2019-03-12T21:36:30.999Z,8.30
2019-03-12T21:39:00.162Z,8.30
2019-03-12T21:41:30.052Z,8.40
2019-03-12T21:44:00.569Z,8.40
2019-03-12T21:46:30.112Z,8.40
2019-03-12T21:49:00.999Z,8.40
2019-03-12T21:51:30.835Z,8.40
2019-03-12T21:54:00.192Z,8.40
2019-03-12T21:56:29.712Z,8.20
2019-03-12T21:59:08.874Z,8.10
2019-03-12T22:01:39.896Z,8.10
2019-03-12T22:04:11.108Z,8.10
2019-03-12T22:06:40.570Z,8.10
2019-03-12T22:09:11.769Z,8.10
2019-03-12T22:11:41.850Z,8.10
2019-03-12T22:14:11.290Z,8.10
2019-03-12T22:16:40.734Z,8.20
2019-03-12T22:19:10.151Z,8.20
2019-03-12T22:21:59.174Z,8.20
2019-03-12T22:24:28.667Z,8.20
2019-03-12T22:26:58.132Z,8.20
2019-03-12T22:29:27.563Z,8.20
2019-03-12T22:31:57.086Z,8.20
2019-03-12T22:34:26.523Z,8.20
2019-03-12T22:36:55.978Z,8.20
2019-03-12T22:39:25.343Z,8.20
2019-03-12T22:41:55.777Z,8.20
2019-03-12T22:44:25.212Z,8.20
2019-03-12T22:46:54.674Z,8.10
2019-03-12T22:49:24.170Z,8.00
2019-03-12T22:51:53.618Z,8.00
2019-03-12T22:54:23.054Z,8.00
2019-03-12T22:56:52.507Z,8.00
2019-03-12T22:59:23.634Z,7.90
2019-03-12T23:02:10.860Z,7.90
2019-03-12T23:04:58.586Z,7.80
2019-03-12T23:07:45.939Z,7.70
2019-03-12T23:10:17.233Z,7.70
2019-03-12T23:12:48.309Z,7.70
2019-03-12T23:15:19.488Z,7.70
2019-03-12T23:17:49.288Z,7.70
2019-03-12T23:20:20.558Z,7.80
2019-03-12T23:22:52.203Z,7.90
2019-03-12T23:25:21.262Z,7.90
2019-03-12T23:27:51.315Z,7.90
2019-03-12T23:30:22.056Z,8.00
2019-03-12T23:32:52.088Z,8.00
2019-03-12T23:35:21.592Z,8.00
2019-03-12T23:37:51.139Z,8.10
2019-03-12T23:40:20.552Z,8.10
2019-03-12T23:42:49.972Z,8.00
2019-03-12T23:45:19.407Z,7.80
2019-03-12T23:47:50.368Z,7.50
2019-03-12T23:50:20.200Z,7.20
2019-03-12T23:52:49.712Z,6.90
2019-03-12T23:55:19.714Z,6.60
2019-03-12T23:57:50.086Z,6.50
